createdAt,value
2017-09-18T00:00:03.146Z,92.40
2017-09-18T00:02:30.749Z,92.40
2017-09-18T00:04:58.345Z,92.40
2017-09-18T00:07:26.076Z,92.40
2017-09-18T00:09:53.673Z,92.40
2017-09-18T00:12:21.266Z,92.40
2017-09-18T00:14:48.979Z,92.30
2017-09-18T00:17:16.559Z,92.30
2017-09-18T00:19:44.138Z,92.20
2017-09-18T00:22:11.951Z,92.20
2017-09-18T00:24:39.528Z,92.30
2017-09-18T00:27:07.107Z,92.30
2017-09-18T00:29:34.728Z,92.30
2017-09-18T00:32:02.306Z,92.30
2017-09-18T00:34:29.892Z,92.30
2017-09-18T00:36:57.533Z,92.20
2017-09-18T00:39:25.111Z,92.20
2017-09-18T00:41:54.206Z,92.40
2017-09-18T00:44:21.843Z,92.30
2017-09-18T00:46:49.410Z,92.20
2017-09-18T00:49:17.755Z,92.10
2017-09-18T00:51:45.383Z,92.10
2017-09-18T00:54:12.963Z,92.00
2017-09-18T00:56:41.306Z,92.10
2017-09-18T00:59:09.809Z,92.30
2017-09-18T01:01:37.382Z,92.10
2017-09-18T01:04:04.961Z,92.10
2017-09-18T01:06:32.831Z,92.20
2017-09-18T01:09:01.184Z,92.20
2017-09-18T01:11:29.522Z,92.30
2017-09-18T01:13:57.247Z,92.30
2017-09-18T01:16:24.818Z,92.20
2017-09-18T01:18:52.410Z,92.10
2017-09-18T01:21:20.153Z,92.20
2017-09-18T01:23:47.752Z,92.30
2017-09-18T01:26:15.343Z,92.30
2017-09-18T01:28:42.969Z,92.30
2017-09-18T01:31:11.327Z,92.30
2017-09-18T01:33:39.693Z,92.30
2017-09-18T01:36:07.441Z,92.20
2017-09-18T01:38:35.023Z,92.20
2017-09-18T01:41:02.599Z,92.30
2017-09-18T01:43:30.328Z,92.40
2017-09-18T01:45:57.917Z,92.30
2017-09-18T01:48:26.277Z,92.20
2017-09-18T01:50:54.794Z,92.10
2017-09-18T01:53:22.374Z,92.10
2017-09-18T01:55:50.721Z,92.10
2017-09-18T01:58:18.372Z,92.00
2017-09-18T02:00:45.950Z,92.00
2017-09-18T02:03:13.524Z,91.90
2017-09-18T02:05:41.172Z,91.90
2017-09-18T02:08:08.760Z,92.00
2017-09-18T02:10:37.113Z,92.20
2017-09-18T02:13:04.853Z,91.90
2017-09-18T02:15:32.449Z,92.00
2017-09-18T02:18:00.030Z,92.00
2017-09-18T02:20:27.764Z,92.00
2017-09-18T02:22:55.352Z,92.00
2017-09-18T02:25:23.710Z,92.10
2017-09-18T02:27:51.365Z,92.10
2017-09-18T02:30:19.720Z,92.10
2017-09-18T02:32:48.067Z,92.10
2017-09-18T02:35:15.701Z,92.00
2017-09-18T02:37:43.274Z,92.10
2017-09-18T02:40:11.633Z,92.20
2017-09-18T02:42:40.015Z,92.20
2017-09-18T02:45:07.599Z,92.50
2017-09-18T02:47:35.183Z,92.40
2017-09-18T02:50:03.688Z,92.30
2017-09-18T02:52:31.276Z,92.30
2017-09-18T02:54:58.870Z,92.30
2017-09-18T02:57:26.517Z,92.20
2017-09-18T02:59:54.099Z,92.30
2017-09-18T03:02:22.455Z,92.30
2017-09-18T03:04:50.086Z,92.60
2017-09-18T03:07:17.662Z,92.20
2017-09-18T03:09:45.244Z,92.20
2017-09-18T03:12:13.087Z,92.10
2017-09-18T03:14:41.424Z,92.00
2017-09-18T03:17:09.002Z,92.00
2017-09-18T03:19:36.843Z,92.00
2017-09-18T03:22:04.414Z,92.00
2017-09-18T03:24:32.008Z,92.10
2017-09-18T03:26:59.754Z,92.00
2017-09-18T03:29:27.327Z,92.00
2017-09-18T03:31:54.916Z,91.80
2017-09-18T03:34:23.328Z,91.90
2017-09-18T03:36:50.920Z,91.90
2017-09-18T03:39:18.505Z,91.90
2017-09-18T03:41:46.912Z,91.90
2017-09-18T03:44:14.505Z,91.90
2017-09-18T03:46:42.847Z,91.90
2017-09-18T03:49:10.577Z,91.90
2017-09-18T03:51:38.154Z,91.90
2017-09-18T03:54:05.738Z,92.00
2017-09-18T03:56:33.368Z,92.00
2017-09-18T03:59:00.943Z,92.10
2017-09-18T04:01:28.539Z,92.20
2017-09-18T04:03:57.502Z,92.30
2017-09-18T04:06:25.083Z,92.30
2017-09-18T04:08:52.672Z,92.20
2017-09-18T04:11:20.305Z,92.20
2017-09-18T04:13:47.878Z,92.20
2017-09-18T04:16:15.472Z,92.30
2017-09-18T04:18:43.120Z,92.30
2017-09-18T04:21:10.713Z,92.40
2017-09-18T04:23:38.317Z,92.50
2017-09-18T04:26:06.144Z,92.90
2017-09-18T04:28:33.742Z,92.50
2017-09-18T04:31:01.337Z,92.50
2017-09-18T04:33:29.065Z,92.50
2017-09-18T04:35:57.411Z,92.60
2017-09-18T04:38:25.005Z,92.60
2017-09-18T04:40:52.635Z,92.60
2017-09-18T04:43:20.216Z,92.60
2017-09-18T04:45:47.813Z,92.70
2017-09-18T04:48:15.457Z,92.60
2017-09-18T04:50:43.039Z,92.60
2017-09-18T04:53:10.649Z,92.60
2017-09-18T04:55:38.290Z,92.70
2017-09-18T04:58:06.644Z,92.60
2017-09-18T05:00:34.996Z,92.60
2017-09-18T05:03:03.510Z,92.60
2017-09-18T05:05:31.112Z,92.60
2017-09-18T05:07:59.459Z,92.70
2017-09-18T05:10:27.201Z,92.70
2017-09-18T05:12:54.783Z,92.70
2017-09-18T05:15:22.407Z,92.70
2017-09-18T05:17:50.823Z,92.60
2017-09-18T05:20:18.402Z,92.60
2017-09-18T05:22:46.763Z,92.50
2017-09-18T05:25:14.435Z,92.40
2017-09-18T05:27:42.019Z,92.30
2017-09-18T05:30:09.600Z,92.20
2017-09-18T05:32:37.231Z,92.20
2017-09-18T05:35:04.823Z,92.10
2017-09-18T05:37:32.409Z,92.00
2017-09-18T05:40:00.146Z,92.00
2017-09-18T05:42:27.741Z,92.00
2017-09-18T05:44:56.082Z,91.90
2017-09-18T05:47:23.721Z,92.30
2017-09-18T05:49:51.302Z,91.70
2017-09-18T05:52:18.882Z,90.90
2017-09-18T05:54:46.517Z,90.40
2017-09-18T05:57:14.097Z,90.10
2017-09-18T05:59:42.469Z,90.10
2017-09-18T06:02:10.137Z,90.10
2017-09-18T06:04:38.482Z,89.70
2017-09-18T06:07:06.840Z,89.50
2017-09-18T06:09:34.477Z,89.20
2017-09-18T06:12:02.081Z,88.60
2017-09-18T06:14:29.676Z,87.50
2017-09-18T06:16:57.311Z,82.80
2017-09-18T06:19:24.903Z,77.90
2017-09-18T06:21:52.487Z,76.40
2017-09-18T06:24:20.130Z,75.90
2017-09-18T06:26:47.725Z,77.10
2017-09-18T06:29:15.311Z,77.10
2017-09-18T06:31:42.947Z,76.00
2017-09-18T06:34:10.526Z,76.40
2017-09-18T06:36:38.102Z,76.10
2017-09-18T06:39:05.829Z,75.50
2017-09-18T06:41:34.206Z,76.40
2017-09-18T06:44:02.562Z,76.40
2017-09-18T06:46:30.430Z,76.40
2017-09-18T06:48:58.021Z,75.80
2017-09-18T06:51:25.614Z,74.30
2017-09-18T06:53:53.363Z,74.10
2017-09-18T06:56:20.956Z,74.40
2017-09-18T06:58:48.552Z,74.10
2017-09-18T07:01:16.197Z,74.10
2017-09-18T07:03:43.799Z,73.40
2017-09-18T07:06:11.374Z,72.90
2017-09-18T07:08:39.943Z,72.00
2017-09-18T07:11:07.545Z,71.90
2017-09-18T07:13:35.145Z,71.90
2017-09-18T07:16:02.784Z,72.20
2017-09-18T07:18:30.359Z,71.40
2017-09-18T07:20:57.940Z,71.40
2017-09-18T07:23:25.596Z,72.10
2017-09-18T07:25:53.948Z,71.90
2017-09-18T07:28:21.535Z,71.90
2017-09-18T07:30:49.275Z,72.90
2017-09-18T07:33:16.881Z,71.80
2017-09-18T07:35:44.476Z,71.90
2017-09-18T07:38:12.110Z,72.60
2017-09-18T07:40:39.691Z,73.20
2017-09-18T07:43:07.289Z,73.30
2017-09-18T07:45:34.936Z,72.90
2017-09-18T07:48:02.522Z,73.00
2017-09-18T07:50:30.098Z,73.10
2017-09-18T07:52:57.718Z,73.30
2017-09-18T07:55:25.292Z,72.50
2017-09-18T07:57:53.657Z,71.30
2017-09-18T08:00:22.070Z,70.60
2017-09-18T08:02:49.664Z,70.50
2017-09-18T08:05:18.023Z,68.90
2017-09-18T08:07:45.660Z,68.90
2017-09-18T08:10:13.248Z,67.50
2017-09-18T08:12:40.845Z,68.20
2017-09-18T08:15:08.486Z,67.50
2017-09-18T08:17:36.181Z,66.30
2017-09-18T08:20:03.772Z,65.60
2017-09-18T08:22:31.399Z,64.30
2017-09-18T08:24:58.996Z,63.80
2017-09-18T08:27:27.341Z,64.10
2017-09-18T08:29:54.967Z,64.00
2017-09-18T08:32:22.562Z,63.80
2017-09-18T08:34:50.156Z,63.10
2017-09-18T08:37:17.901Z,62.20
2017-09-18T08:39:45.493Z,61.30
2017-09-18T08:42:13.071Z,60.90
2017-09-18T08:44:40.702Z,58.60
2017-09-18T08:47:08.293Z,57.80
2017-09-18T08:49:35.889Z,58.50
2017-09-18T08:52:03.524Z,58.90
2017-09-18T08:54:31.212Z,59.00
2017-09-18T08:56:58.796Z,60.10
2017-09-18T08:59:27.210Z,60.50
2017-09-18T09:01:54.795Z,60.50
2017-09-18T09:04:23.153Z,58.30
2017-09-18T09:06:51.552Z,57.80
2017-09-18T09:09:19.144Z,58.30
2017-09-18T09:11:46.732Z,58.20
2017-09-18T09:14:14.467Z,60.00
2017-09-18T09:16:42.063Z,56.60
2017-09-18T09:19:09.639Z,56.70
2017-09-18T09:21:38.023Z,56.70
2017-09-18T09:24:05.604Z,56.60
2017-09-18T09:26:33.188Z,57.00
2017-09-18T09:29:00.807Z,58.10
2017-09-18T09:31:28.400Z,58.70
2017-09-18T09:33:55.974Z,59.00
2017-09-18T09:36:23.709Z,60.80
2017-09-18T09:38:51.291Z,62.00
2017-09-18T09:41:18.889Z,60.90
2017-09-18T09:43:46.619Z,61.40
2017-09-18T09:46:14.223Z,62.00
2017-09-18T09:48:41.809Z,60.90
2017-09-18T09:51:10.378Z,61.10
2017-09-18T09:53:37.983Z,61.00
2017-09-18T09:56:05.568Z,59.50
2017-09-18T09:58:33.411Z,58.60
2017-09-18T10:01:01.761Z,58.80
2017-09-18T10:03:30.185Z,58.80
2017-09-18T10:05:58.029Z,58.80
2017-09-18T10:08:25.611Z,58.40
2017-09-18T10:10:53.187Z,58.60
2017-09-18T10:13:20.823Z,59.70
2017-09-18T10:15:49.181Z,59.30
2017-09-18T10:18:17.523Z,59.70
2017-09-18T10:20:45.149Z,59.70
2017-09-18T10:23:13.482Z,60.30
2017-09-18T10:25:41.072Z,60.70
2017-09-18T10:28:09.565Z,62.00
2017-09-18T10:30:37.139Z,62.00
2017-09-18T10:33:04.734Z,61.60
2017-09-18T10:35:33.133Z,60.30
2017-09-18T10:38:00.725Z,60.20
2017-09-18T10:40:28.313Z,61.30
2017-09-18T10:42:55.962Z,60.20
2017-09-18T10:45:23.534Z,60.00
2017-09-18T10:47:51.108Z,61.70
2017-09-18T10:50:18.848Z,61.40
2017-09-18T10:52:46.438Z,59.40
2017-09-18T10:55:14.023Z,58.80
2017-09-18T10:57:41.656Z,58.20
2017-09-18T11:00:09.249Z,57.20
2017-09-18T11:02:37.601Z,53.70
2017-09-18T11:05:05.245Z,53.50
2017-09-18T11:07:32.814Z,52.50
2017-09-18T11:10:00.395Z,54.10
2017-09-18T11:12:28.032Z,54.80
2017-09-18T11:14:55.617Z,53.60
2017-09-18T11:17:23.212Z,54.10
2017-09-18T11:19:50.864Z,56.30
2017-09-18T11:22:18.448Z,55.80
2017-09-18T11:24:46.032Z,55.10
2017-09-18T11:27:13.669Z,56.00
2017-09-18T11:29:41.243Z,57.30
2017-09-18T11:32:08.815Z,57.60
2017-09-18T11:34:36.621Z,58.00
2017-09-18T11:37:04.190Z,59.40
2017-09-18T11:39:31.759Z,56.20
2017-09-18T11:41:59.393Z,56.50
2017-09-18T11:44:26.980Z,58.10
2017-09-18T11:46:55.380Z,59.30
2017-09-18T11:49:23.010Z,59.10
2017-09-18T11:51:50.597Z,56.80
2017-09-18T11:54:18.185Z,57.00
2017-09-18T11:56:45.829Z,58.10
2017-09-18T11:59:13.398Z,56.60
2017-09-18T12:01:40.990Z,56.30
2017-09-18T12:04:09.397Z,57.00
2017-09-18T12:06:36.984Z,56.90
2017-09-18T12:09:05.333Z,59.10
2017-09-18T12:11:33.142Z,59.00
2017-09-18T12:14:00.729Z,58.80
2017-09-18T12:16:28.306Z,59.10
2017-09-18T12:18:56.837Z,59.60
2017-09-18T12:21:24.485Z,59.50
2017-09-18T12:23:52.049Z,59.20
2017-09-18T12:26:19.679Z,59.30
2017-09-18T12:28:47.288Z,59.30
2017-09-18T12:31:14.888Z,58.90
2017-09-18T12:33:43.408Z,60.80
2017-09-18T12:36:10.992Z,60.50
2017-09-18T12:38:38.586Z,60.50
2017-09-18T12:41:06.202Z,60.30
2017-09-18T12:43:34.563Z,60.90
2017-09-18T12:46:02.904Z,62.70
2017-09-18T12:48:30.523Z,62.70
2017-09-18T12:50:58.103Z,62.90
2017-09-18T12:53:26.462Z,63.10
2017-09-18T12:55:55.042Z,62.30
2017-09-18T12:58:23.397Z,60.40
2017-09-18T13:00:52.033Z,59.70
2017-09-18T13:03:19.999Z,59.60
2017-09-18T13:05:48.347Z,59.20
2017-09-18T13:08:16.095Z,59.20
2017-09-18T13:10:44.031Z,57.30
2017-09-18T13:13:12.485Z,52.70
2017-09-18T13:15:40.076Z,52.70
2017-09-18T13:18:07.804Z,54.20
2017-09-18T13:20:35.550Z,55.90
2017-09-18T13:23:03.136Z,55.90
2017-09-18T13:25:30.770Z,57.30
2017-09-18T13:27:59.120Z,56.80
2017-09-18T13:30:28.205Z,56.00
2017-09-18T13:32:55.971Z,56.00
2017-09-18T13:35:24.324Z,56.30
2017-09-18T13:37:52.684Z,56.30
2017-09-18T13:40:21.154Z,57.40
2017-09-18T13:42:49.499Z,57.20
2017-09-18T13:45:17.960Z,57.20
2017-09-18T13:47:45.682Z,57.00
2017-09-18T13:50:13.277Z,57.70
2017-09-18T13:52:41.622Z,58.10
2017-09-18T13:55:09.279Z,58.10
2017-09-18T13:57:37.637Z,58.00
2017-09-18T14:00:06.000Z,58.20
2017-09-18T14:02:34.410Z,58.80
2017-09-18T14:05:02.005Z,58.80
2017-09-18T14:07:30.359Z,58.00
2017-09-18T14:09:58.000Z,58.00
2017-09-18T14:12:25.587Z,58.40
2017-09-18T14:14:53.457Z,59.20
2017-09-18T14:17:21.087Z,58.10
2017-09-18T14:19:48.682Z,58.30
2017-09-18T14:22:16.251Z,58.20
2017-09-18T14:24:44.672Z,57.80
2017-09-18T14:27:12.250Z,57.80
2017-09-18T14:29:40.598Z,58.20
2017-09-18T14:32:08.234Z,58.20
2017-09-18T14:34:35.835Z,58.60
2017-09-18T14:37:03.427Z,59.40
2017-09-18T14:39:31.066Z,59.20
2017-09-18T14:42:00.168Z,58.50
2017-09-18T14:44:28.532Z,58.60
2017-09-18T14:46:56.944Z,58.40
2017-09-18T14:49:24.523Z,58.30
2017-09-18T14:51:52.099Z,58.20
2017-09-18T14:54:19.719Z,57.20
2017-09-18T14:56:48.080Z,54.40
2017-09-18T14:59:15.669Z,54.00
2017-09-18T15:01:43.407Z,55.20
2017-09-18T15:04:10.988Z,55.10
2017-09-18T15:06:38.559Z,55.40
2017-09-18T15:09:06.204Z,54.40
2017-09-18T15:11:34.559Z,54.80
2017-09-18T15:14:02.135Z,54.80
2017-09-18T15:16:29.897Z,54.40
2017-09-18T15:18:57.462Z,55.20
2017-09-18T15:21:25.045Z,53.80
2017-09-18T15:23:53.653Z,54.70
2017-09-18T15:26:21.217Z,53.90
2017-09-18T15:28:48.812Z,53.80
2017-09-18T15:31:17.203Z,54.30
2017-09-18T15:33:45.251Z,54.30
2017-09-18T15:36:12.841Z,54.10
2017-09-18T15:38:40.476Z,53.90
2017-09-18T15:41:08.089Z,54.30
2017-09-18T15:43:35.681Z,55.50
2017-09-18T15:46:04.214Z,56.40
2017-09-18T15:48:31.809Z,56.40
2017-09-18T15:51:00.160Z,57.80
2017-09-18T15:53:27.796Z,57.70
2017-09-18T15:55:55.387Z,57.90
2017-09-18T15:58:22.970Z,58.70
2017-09-18T16:00:50.595Z,59.10
2017-09-18T16:03:18.171Z,59.20
2017-09-18T16:05:45.761Z,59.30
2017-09-18T16:08:13.409Z,60.00
2017-09-18T16:10:41.009Z,60.10
2017-09-18T16:13:08.584Z,60.60
2017-09-18T16:15:37.111Z,61.40
2017-09-18T16:18:04.712Z,61.40
2017-09-18T16:20:32.294Z,61.70
2017-09-18T16:22:59.956Z,63.10
2017-09-18T16:25:27.539Z,63.70
2017-09-18T16:27:55.118Z,64.20
2017-09-18T16:30:22.758Z,64.70
2017-09-18T16:32:50.376Z,65.00
2017-09-18T16:35:18.070Z,64.60
2017-09-18T16:37:45.698Z,64.10
2017-09-18T16:40:13.292Z,63.80
2017-09-18T16:42:41.637Z,63.40
2017-09-18T16:45:09.300Z,63.40
2017-09-18T16:47:37.653Z,64.10
2017-09-18T16:50:06.005Z,65.20
2017-09-18T16:52:33.777Z,64.90
2017-09-18T16:55:02.133Z,66.00
2017-09-18T16:57:30.501Z,66.60
2017-09-18T17:00:20.251Z,66.80
2017-09-18T17:02:48.606Z,67.10
2017-09-18T17:05:16.200Z,67.00
2017-09-18T17:07:44.057Z,67.90
2017-09-18T17:10:11.645Z,67.80
2017-09-18T17:12:39.234Z,68.00
2017-09-18T17:15:07.061Z,68.60
2017-09-18T17:17:35.428Z,70.50
2017-09-18T17:20:03.001Z,70.50
2017-09-18T17:22:30.615Z,71.10
2017-09-18T17:24:58.196Z,71.40
2017-09-18T17:27:25.781Z,71.70
2017-09-18T17:29:53.414Z,72.00
2017-09-18T17:32:20.982Z,71.70
2017-09-18T17:34:49.341Z,72.70
2017-09-18T17:37:17.825Z,72.60
2017-09-18T17:39:45.399Z,72.50
2017-09-18T17:42:12.987Z,73.10
2017-09-18T17:44:40.609Z,73.10
2017-09-18T17:47:08.188Z,73.90
2017-09-18T17:49:36.539Z,74.30
2017-09-18T17:52:05.222Z,74.00
2017-09-18T17:54:33.560Z,74.50
2017-09-18T17:57:01.907Z,74.10
2017-09-18T17:59:29.575Z,73.80
2017-09-18T18:01:57.155Z,74.00
2017-09-18T18:04:24.749Z,74.20
2017-09-18T18:06:52.388Z,74.30
2017-09-18T18:09:19.976Z,74.20
2017-09-18T18:11:47.558Z,74.60
2017-09-18T18:14:15.174Z,74.90
2017-09-18T18:16:42.758Z,74.90
2017-09-18T18:19:10.335Z,75.10
2017-09-18T18:21:38.723Z,75.20
2017-09-18T18:24:06.295Z,75.30
2017-09-18T18:26:33.868Z,75.30
2017-09-18T18:29:01.514Z,75.60
2017-09-18T18:31:29.088Z,76.50
2017-09-18T18:33:56.668Z,76.30
2017-09-18T18:36:24.382Z,76.30
2017-09-18T18:38:51.997Z,77.00
2017-09-18T18:41:19.588Z,77.00
2017-09-18T18:43:47.232Z,77.00
2017-09-18T18:46:15.159Z,77.60
2017-09-18T18:48:42.869Z,77.70
2017-09-18T18:51:10.502Z,77.70
2017-09-18T18:53:38.085Z,77.60
2017-09-18T18:56:09.372Z,78.20
2017-09-18T18:58:37.137Z,78.20
2017-09-18T19:01:04.742Z,78.20
2017-09-18T19:03:32.328Z,78.20
2017-09-18T19:06:00.048Z,77.70
2017-09-18T19:08:27.628Z,77.80
2017-09-18T19:10:55.218Z,78.50
2017-09-18T19:13:22.955Z,79.20
2017-09-18T19:15:51.325Z,79.40
2017-09-18T19:18:18.913Z,79.30
2017-09-18T19:20:46.716Z,78.40
2017-09-18T19:23:14.309Z,76.40
2017-09-18T19:25:42.888Z,77.10
2017-09-18T19:28:10.546Z,77.30
2017-09-18T19:30:38.887Z,78.40
2017-09-18T19:33:06.510Z,77.60
2017-09-18T19:35:34.137Z,78.10
2017-09-18T19:38:01.752Z,78.50
2017-09-18T19:40:30.131Z,79.60
2017-09-18T19:42:57.781Z,79.50
2017-09-18T19:45:25.387Z,79.70
2017-09-18T19:47:53.757Z,80.90
2017-09-18T19:50:22.154Z,80.90
2017-09-18T19:52:49.738Z,80.90
2017-09-18T19:55:17.319Z,81.40
2017-09-18T19:57:45.716Z,82.60
2017-09-18T20:00:13.304Z,82.50
2017-09-18T20:02:40.883Z,82.50
2017-09-18T20:05:08.533Z,82.60
2017-09-18T20:07:36.120Z,82.60
2017-09-18T20:10:04.471Z,82.80
2017-09-18T20:12:32.093Z,83.50
2017-09-18T20:14:59.679Z,83.00
2017-09-18T20:17:27.277Z,83.10
2017-09-18T20:19:55.755Z,83.40
2017-09-18T20:22:23.339Z,83.30
2017-09-18T20:24:50.922Z,83.40
2017-09-18T20:27:18.763Z,83.60
2017-09-18T20:29:46.361Z,83.60
2017-09-18T20:32:13.948Z,83.60
2017-09-18T20:34:41.596Z,83.60
2017-09-18T20:37:09.175Z,83.60
2017-09-18T20:39:36.769Z,83.80
2017-09-18T20:42:05.168Z,84.10
2017-09-18T20:44:32.743Z,84.10
2017-09-18T20:47:00.365Z,84.30
2017-09-18T20:49:28.092Z,84.50
2017-09-18T20:51:55.694Z,84.40
2017-09-18T20:54:23.289Z,84.20
2017-09-18T20:56:50.938Z,84.00
2017-09-18T20:59:18.525Z,83.90
2017-09-18T21:01:46.107Z,83.80
2017-09-18T21:04:13.814Z,83.60
2017-09-18T21:06:41.404Z,83.20
2017-09-18T21:09:08.978Z,83.10
2017-09-18T21:11:36.618Z,83.20
2017-09-18T21:14:04.195Z,83.10
2017-09-18T21:16:31.790Z,83.40
2017-09-18T21:18:59.432Z,83.50
2017-09-18T21:21:27.305Z,83.70
2017-09-18T21:23:54.891Z,84.00
2017-09-18T21:26:29.256Z,84.50
2017-09-18T21:28:56.839Z,84.10
2017-09-18T21:31:24.418Z,84.10
2017-09-18T21:33:52.048Z,83.80
2017-09-18T21:36:20.412Z,83.40
2017-09-18T21:38:47.990Z,83.40
2017-09-18T21:41:15.625Z,83.20
2017-09-18T21:43:43.199Z,83.30
2017-09-18T21:46:10.776Z,83.20
2017-09-18T21:48:39.280Z,83.50
2017-09-18T21:51:06.862Z,83.50
2017-09-18T21:53:34.453Z,83.80
2017-09-18T21:56:03.620Z,83.80
2017-09-18T21:58:31.958Z,84.20
2017-09-18T22:00:59.534Z,84.20
2017-09-18T22:06:07.392Z,84.10
2017-09-18T22:11:26.335Z,83.70
2017-09-18T22:13:54.687Z,83.60
2017-09-18T22:16:26.877Z,83.50
2017-09-18T22:18:54.481Z,83.90
2017-09-18T22:32:48.016Z,84.50
2017-09-18T22:35:15.611Z,84.40
2017-09-18T22:43:25.903Z,85.30
2017-09-18T22:45:53.492Z,85.70
2017-09-18T22:48:24.828Z,86.00
2017-09-18T22:50:52.476Z,86.00
2017-09-18T22:59:22.558Z,85.60
2017-09-18T23:04:41.676Z,85.80
2017-09-18T23:10:00.610Z,86.20
2017-09-18T23:12:28.225Z,86.30
2017-09-18T23:20:37.047Z,86.60
2017-09-18T23:23:04.667Z,86.50
2017-09-18T23:31:17.236Z,86.80
2017-09-18T23:33:46.953Z,87.30
2017-09-18T23:36:14.615Z,87.30
2017-09-18T23:38:42.211Z,87.60
2017-09-18T23:41:09.818Z,87.30
2017-09-18T23:43:42.065Z,87.90
2017-09-18T23:46:09.671Z,87.90
2017-09-18T23:48:38.892Z,88.10
2017-09-18T23:51:06.551Z,88.10
2017-09-18T23:53:34.163Z,87.70
2017-09-18T23:56:01.780Z,87.50
2017-09-18T23:58:30.207Z,87.70
